createdAt,value
2022-10-13T00:01:58.612Z,99.90
2022-10-13T00:04:25.329Z,99.90
2022-10-13T00:06:52.210Z,99.90
2022-10-13T00:09:19.029Z,99.90
2022-10-13T00:11:45.864Z,99.90
2022-10-13T00:14:12.599Z,99.90
2022-10-13T00:16:39.688Z,99.90
2022-10-13T00:19:06.465Z,99.90
2022-10-13T00:21:33.167Z,99.90
2022-10-13T00:23:59.843Z,99.90
2022-10-13T00:26:26.942Z,99.90
2022-10-13T00:28:54.935Z,99.90
2022-10-13T00:31:22.960Z,99.90
2022-10-13T00:33:49.807Z,99.90
2022-10-13T00:36:16.661Z,99.90
2022-10-13T00:38:43.771Z,99.90
2022-10-13T00:41:10.589Z,99.90
2022-10-13T00:44:01.079Z,99.90
2022-10-13T00:46:30.237Z,99.90
2022-10-13T00:49:14.184Z,99.90
2022-10-13T00:51:47.749Z,99.90
2022-10-13T00:54:16.931Z,99.90
2022-10-13T00:56:43.608Z,99.90
2022-10-13T00:59:13.898Z,99.90
2022-10-13T01:01:40.610Z,99.90
2022-10-13T01:04:07.346Z,99.90
2022-10-13T01:06:34.084Z,99.90
2022-10-13T01:09:00.808Z,99.90
2022-10-13T01:11:49.179Z,99.90
2022-10-13T01:14:33.813Z,99.90
2022-10-13T01:17:13.853Z,99.90
2022-10-13T01:19:49.543Z,99.90
2022-10-13T01:22:35.059Z,99.90
2022-10-13T01:25:07.725Z,99.90
2022-10-13T01:27:39.876Z,99.90
2022-10-13T01:30:09.545Z,99.90
2022-10-13T01:32:43.283Z,99.90
2022-10-13T01:35:30.001Z,99.90
2022-10-13T01:38:10.463Z,99.90
2022-10-13T01:40:46.325Z,99.90
2022-10-13T01:43:27.804Z,99.90
2022-10-13T01:46:02.441Z,99.90
2022-10-13T01:48:29.332Z,99.90
2022-10-13T01:50:56.615Z,99.90
2022-10-13T01:53:23.667Z,99.90
2022-10-13T01:55:51.288Z,99.90
2022-10-13T01:58:18.001Z,99.90
2022-10-13T02:00:51.248Z,99.90
2022-10-13T02:03:23.843Z,99.90
2022-10-13T02:05:57.084Z,99.90
2022-10-13T02:08:25.943Z,99.90
2022-10-13T02:10:58.010Z,99.90
2022-10-13T02:13:26.504Z,99.90
2022-10-13T02:15:54.367Z,99.90
2022-10-13T02:18:23.639Z,99.90
2022-10-13T02:20:50.669Z,99.90
2022-10-13T02:23:18.150Z,99.90
2022-10-13T02:25:45.024Z,99.90
2022-10-13T02:28:12.850Z,99.90
2022-10-13T02:30:39.824Z,99.90
2022-10-13T02:33:06.608Z,99.90
2022-10-13T02:35:33.610Z,99.90
2022-10-13T02:38:00.600Z,99.90
2022-10-13T02:40:27.577Z,99.90
2022-10-13T02:42:54.367Z,99.90
2022-10-13T02:45:21.092Z,99.90
2022-10-13T02:47:47.804Z,99.90
2022-10-13T02:50:14.664Z,99.90
2022-10-13T02:52:41.379Z,99.90
2022-10-13T02:55:08.583Z,99.90
2022-10-13T02:57:35.367Z,99.90
2022-10-13T03:00:02.197Z,99.90
2022-10-13T03:02:28.953Z,99.90
2022-10-13T03:04:56.066Z,99.90
2022-10-13T03:07:22.822Z,99.90
2022-10-13T03:09:49.847Z,99.90
2022-10-13T03:12:16.673Z,99.90
2022-10-13T03:14:43.794Z,99.90
2022-10-13T03:17:13.435Z,99.90
2022-10-13T03:19:40.435Z,99.90
2022-10-13T03:22:07.091Z,99.90
2022-10-13T03:24:33.766Z,99.90
2022-10-13T03:27:00.478Z,99.90
2022-10-13T03:29:27.219Z,99.90
2022-10-13T03:31:53.955Z,99.90
2022-10-13T03:34:20.625Z,99.90
2022-10-13T03:36:47.333Z,99.90
2022-10-13T03:39:14.065Z,99.90
2022-10-13T03:41:41.008Z,99.90
2022-10-13T03:44:07.686Z,99.90
2022-10-13T03:46:34.483Z,99.90
2022-10-13T03:49:01.149Z,99.90
2022-10-13T03:51:27.801Z,99.90
2022-10-13T03:53:54.616Z,99.90
2022-10-13T03:56:23.744Z,99.90
2022-10-13T03:58:54.083Z,99.90
2022-10-13T04:01:22.405Z,99.90
2022-10-13T04:03:50.035Z,99.90
2022-10-13T04:06:17.048Z,99.90
2022-10-13T04:08:43.880Z,99.90
2022-10-13T04:11:12.101Z,99.90
2022-10-13T04:13:38.770Z,99.90
2022-10-13T04:16:16.462Z,99.90
2022-10-13T04:18:44.880Z,99.90
2022-10-13T04:21:14.170Z,99.90
2022-10-13T04:23:40.877Z,99.90
2022-10-13T04:26:07.553Z,99.90
2022-10-13T04:28:36.057Z,99.90
2022-10-13T04:31:03.324Z,99.90
2022-10-13T04:33:30.108Z,99.90
2022-10-13T04:35:57.053Z,99.90
2022-10-13T04:38:23.781Z,99.90
2022-10-13T04:40:50.505Z,99.90
2022-10-13T04:43:17.435Z,99.90
2022-10-13T04:45:44.960Z,99.90
2022-10-13T04:48:11.788Z,99.90
2022-10-13T04:50:38.846Z,99.90
2022-10-13T04:53:05.539Z,99.90
2022-10-13T04:55:34.823Z,99.90
2022-10-13T04:58:01.580Z,99.90
2022-10-13T05:00:28.313Z,99.90
2022-10-13T05:02:55.315Z,99.90
2022-10-13T05:05:21.992Z,99.90
2022-10-13T05:07:48.686Z,99.90
2022-10-13T05:10:15.502Z,99.90
2022-10-13T05:12:42.386Z,99.90
2022-10-13T05:15:09.516Z,99.90
2022-10-13T05:17:36.298Z,99.90
2022-10-13T05:20:03.267Z,99.90
2022-10-13T05:22:29.974Z,99.90
2022-10-13T05:24:56.779Z,99.90
2022-10-13T05:27:23.533Z,99.90
2022-10-13T05:29:52.716Z,99.90
2022-10-13T05:32:19.559Z,99.90
2022-10-13T05:34:48.633Z,99.90
2022-10-13T05:37:17.157Z,99.90
2022-10-13T05:39:48.612Z,99.90
2022-10-13T05:42:15.715Z,99.90
2022-10-13T05:44:42.785Z,99.90
2022-10-13T05:47:09.420Z,99.90
2022-10-13T05:49:42.112Z,99.90
2022-10-13T05:52:10.281Z,99.90
2022-10-13T05:54:46.708Z,99.90
2022-10-13T05:57:15.506Z,99.90
2022-10-13T05:59:45.094Z,99.90
2022-10-13T06:02:12.472Z,99.90
2022-10-13T06:04:41.776Z,99.90
2022-10-13T06:07:08.845Z,99.90
2022-10-13T06:09:37.777Z,99.90
2022-10-13T06:12:05.723Z,99.90
2022-10-13T06:14:32.527Z,99.90
2022-10-13T06:16:59.286Z,99.90
2022-10-13T06:19:25.984Z,99.90
2022-10-13T06:21:52.924Z,99.90
2022-10-13T06:24:19.743Z,99.90
2022-10-13T06:26:46.429Z,99.90
2022-10-13T06:29:13.168Z,99.90
2022-10-13T06:31:40.248Z,99.90
2022-10-13T06:34:07.563Z,99.90
2022-10-13T06:36:36.758Z,99.90
2022-10-13T06:39:03.694Z,99.90
2022-10-13T06:41:30.434Z,99.90
2022-10-13T06:43:57.507Z,99.90
2022-10-13T06:46:24.194Z,99.90
2022-10-13T06:48:51.152Z,99.90
2022-10-13T06:51:17.949Z,99.90
2022-10-13T06:53:44.711Z,99.90
2022-10-13T06:56:11.428Z,99.90
2022-10-13T06:58:38.365Z,99.90
2022-10-13T07:01:05.835Z,99.90
2022-10-13T07:03:32.995Z,99.90
2022-10-13T07:06:03.910Z,99.90
2022-10-13T07:08:31.258Z,99.90
2022-10-13T07:10:58.200Z,99.90
2022-10-13T07:13:25.108Z,99.90
2022-10-13T07:15:51.893Z,99.90
2022-10-13T07:18:18.569Z,99.90
2022-10-13T07:20:45.372Z,99.90
2022-10-13T07:23:12.482Z,99.90
2022-10-13T07:25:39.265Z,99.90
2022-10-13T07:28:06.006Z,99.90
2022-10-13T07:30:32.736Z,99.90
2022-10-13T07:33:00.128Z,99.90
2022-10-13T07:35:30.448Z,99.90
2022-10-13T07:37:57.723Z,99.90
2022-10-13T07:40:24.468Z,99.90
2022-10-13T07:42:51.161Z,99.90
2022-10-13T07:45:17.908Z,99.90
2022-10-13T07:47:44.739Z,99.90
2022-10-13T07:50:11.861Z,99.90
2022-10-13T07:52:38.572Z,99.90
2022-10-13T07:55:05.909Z,99.90
2022-10-13T07:57:33.246Z,99.90
2022-10-13T08:00:00.032Z,99.90
2022-10-13T08:02:27.063Z,99.90
2022-10-13T08:04:53.813Z,99.90
2022-10-13T08:07:20.886Z,99.90
2022-10-13T08:09:47.875Z,99.90
2022-10-13T08:12:14.623Z,99.90
2022-10-13T08:14:41.988Z,99.90
2022-10-13T08:17:08.819Z,99.90
2022-10-13T08:19:35.689Z,99.90
2022-10-13T08:22:05.458Z,99.90
2022-10-13T08:24:34.543Z,99.90
2022-10-13T08:27:01.286Z,99.90
2022-10-13T08:29:28.392Z,99.90
2022-10-13T08:31:55.794Z,99.90
2022-10-13T08:34:23.516Z,99.90
2022-10-13T08:36:53.356Z,99.90
2022-10-13T08:39:21.257Z,99.90
2022-10-13T08:41:47.971Z,99.90
2022-10-13T08:47:29.983Z,99.90
2022-10-13T08:50:00.355Z,99.90
2022-10-13T08:52:29.266Z,99.90
2022-10-13T08:54:56.273Z,99.90
2022-10-13T08:57:23.471Z,99.90
2022-10-13T08:59:50.345Z,99.90
2022-10-13T09:02:27.137Z,99.90
2022-10-13T09:04:53.933Z,99.90
2022-10-13T09:07:28.445Z,99.90
2022-10-13T09:09:58.474Z,99.90
2022-10-13T09:12:25.547Z,99.90
2022-10-13T09:15:07.446Z,99.90
2022-10-13T09:17:34.328Z,99.90
2022-10-13T09:20:07.974Z,99.90
2022-10-13T09:22:36.541Z,99.90
2022-10-13T09:25:11.070Z,99.90
2022-10-13T09:27:50.245Z,99.90
2022-10-13T09:30:32.165Z,99.90
2022-10-13T09:33:04.930Z,99.90
2022-10-13T09:35:35.053Z,99.90
2022-10-13T09:38:05.579Z,99.90
2022-10-13T09:40:32.497Z,99.90
2022-10-13T09:43:00.786Z,99.90
2022-10-13T09:45:27.990Z,99.90
2022-10-13T09:47:58.132Z,99.90
2022-10-13T09:50:29.314Z,99.90
2022-10-13T09:53:16.417Z,99.90
2022-10-13T09:55:46.842Z,99.90
2022-10-13T09:58:25.641Z,99.90
2022-10-13T10:00:52.405Z,99.90
2022-10-13T10:03:33.788Z,99.90
2022-10-13T10:06:02.109Z,99.90
2022-10-13T10:09:03.066Z,99.90
2022-10-13T10:11:44.267Z,99.90
2022-10-13T10:14:27.120Z,99.90
2022-10-13T10:17:25.439Z,99.90
2022-10-13T10:20:17.807Z,99.90
2022-10-13T10:22:52.000Z,99.90
2022-10-13T10:25:43.983Z,99.90
2022-10-13T10:28:22.904Z,99.90
2022-10-13T10:31:18.105Z,99.90
2022-10-13T10:34:14.906Z,99.90
2022-10-13T10:36:51.423Z,99.90
2022-10-13T10:39:32.223Z,99.90
2022-10-13T10:42:21.240Z,99.90
2022-10-13T10:44:48.631Z,99.90
2022-10-13T10:47:40.347Z,99.90
2022-10-13T10:50:07.486Z,99.90
2022-10-13T10:53:00.700Z,99.90
2022-10-13T10:55:38.605Z,99.90
2022-10-13T10:58:50.670Z,99.90
2022-10-13T11:01:22.902Z,99.90
2022-10-13T11:03:55.227Z,99.90
2022-10-13T11:06:32.585Z,99.90
2022-10-13T11:08:59.536Z,99.90
2022-10-13T11:11:28.587Z,99.90
2022-10-13T11:14:06.442Z,99.90
2022-10-13T11:16:40.220Z,99.90
2022-10-13T11:19:28.884Z,99.90
2022-10-13T11:22:10.091Z,99.90
2022-10-13T11:24:38.813Z,99.90
2022-10-13T11:27:08.303Z,99.90
2022-10-13T11:29:44.429Z,99.90
2022-10-13T11:32:26.895Z,99.90
2022-10-13T11:35:05.639Z,99.90
2022-10-13T11:37:35.466Z,99.90
2022-10-13T11:40:08.171Z,99.90
2022-10-13T11:43:23.330Z,99.90
2022-10-13T11:46:20.263Z,99.90
2022-10-13T11:48:59.053Z,99.90
2022-10-13T11:52:03.323Z,99.90
2022-10-13T11:54:34.619Z,99.90
2022-10-13T11:57:01.450Z,99.90
2022-10-13T11:59:33.168Z,99.90
2022-10-13T12:02:09.970Z,99.90
2022-10-13T12:04:37.307Z,99.90
2022-10-13T12:07:05.965Z,99.90
2022-10-13T12:09:33.491Z,99.90
2022-10-13T12:12:07.387Z,99.90
2022-10-13T12:14:43.377Z,99.90
2022-10-13T12:17:29.814Z,99.90
2022-10-13T12:20:00.424Z,99.90
2022-10-13T12:22:28.028Z,99.90
2022-10-13T12:25:02.448Z,99.90
2022-10-13T12:27:32.772Z,99.90
2022-10-13T12:30:02.371Z,99.90
2022-10-13T12:32:30.777Z,99.90
2022-10-13T12:35:09.906Z,99.90
2022-10-13T12:37:37.317Z,99.90
2022-10-13T12:40:05.037Z,99.90
2022-10-13T12:42:32.849Z,99.90
2022-10-13T12:45:00.038Z,99.90
2022-10-13T12:47:45.312Z,99.90
2022-10-13T12:50:29.125Z,99.90
2022-10-13T12:53:12.275Z,99.90
2022-10-13T12:55:59.222Z,99.90
2022-10-13T12:58:27.414Z,99.90
2022-10-13T13:01:12.453Z,99.90
2022-10-13T13:03:40.155Z,99.90
2022-10-13T13:06:20.249Z,99.90
2022-10-13T13:08:46.972Z,99.90
2022-10-13T13:11:24.670Z,99.90
2022-10-13T13:13:51.455Z,99.90
2022-10-13T13:16:19.737Z,99.90
2022-10-13T13:18:47.880Z,99.90
2022-10-13T13:21:18.545Z,99.90
2022-10-13T13:23:51.121Z,99.90
2022-10-13T13:26:22.107Z,99.90
2022-10-13T13:28:55.690Z,99.90
2022-10-13T13:31:23.659Z,99.90
2022-10-13T13:33:50.488Z,99.90
2022-10-13T13:36:22.896Z,99.90
2022-10-13T13:38:49.638Z,99.90
2022-10-13T13:41:16.552Z,99.90
2022-10-13T13:43:43.312Z,99.90
2022-10-13T13:46:18.389Z,99.90
2022-10-13T13:48:45.036Z,99.90
2022-10-13T13:51:11.705Z,99.90
2022-10-13T13:53:38.771Z,99.90
2022-10-13T13:56:05.732Z,99.90
2022-10-13T13:58:32.560Z,99.90
2022-10-13T14:00:59.975Z,99.90
2022-10-13T14:03:26.682Z,99.90
2022-10-13T14:05:53.352Z,99.90
2022-10-13T14:08:20.085Z,99.90
2022-10-13T14:10:46.827Z,99.90
2022-10-13T14:13:13.497Z,99.90
2022-10-13T14:15:40.201Z,99.90
2022-10-13T14:18:06.894Z,99.90
2022-10-13T14:20:33.809Z,99.90
2022-10-13T14:23:00.472Z,99.90
2022-10-13T14:25:27.215Z,99.90
2022-10-13T14:27:54.015Z,99.90
2022-10-13T14:30:20.709Z,99.90
2022-10-13T14:32:47.388Z,99.90
2022-10-13T14:35:14.375Z,99.90
2022-10-13T14:37:41.019Z,99.90
2022-10-13T14:40:08.165Z,99.90
2022-10-13T14:42:34.886Z,99.90
2022-10-13T14:45:02.954Z,99.90
2022-10-13T14:47:29.696Z,99.90
2022-10-13T14:49:56.402Z,99.90
2022-10-13T14:52:23.462Z,99.90
2022-10-13T14:54:50.263Z,99.90
2022-10-13T14:57:17.040Z,99.90
2022-10-13T14:59:43.877Z,99.90
2022-10-13T15:02:11.515Z,99.90
2022-10-13T15:04:38.452Z,99.90
2022-10-13T15:07:05.393Z,99.90
2022-10-13T15:09:45.117Z,99.90
2022-10-13T15:12:19.598Z,99.90
2022-10-13T15:14:46.695Z,99.90
2022-10-13T15:17:13.412Z,99.90
2022-10-13T15:19:40.076Z,99.90
2022-10-13T15:22:06.946Z,99.90
2022-10-13T15:24:33.775Z,99.90
2022-10-13T15:27:00.711Z,99.90
2022-10-13T15:29:27.470Z,99.90
2022-10-13T15:32:06.437Z,99.90
2022-10-13T15:34:33.497Z,99.50
2022-10-13T15:37:00.400Z,99.90
2022-10-13T15:39:27.097Z,99.40
2022-10-13T15:41:53.763Z,98.30
2022-10-13T15:44:21.267Z,97.10
2022-10-13T15:47:06.700Z,96.80
2022-10-13T15:49:37.374Z,98.00
2022-10-13T15:52:04.239Z,98.70
2022-10-13T15:54:31.177Z,99.20
2022-10-13T15:56:57.884Z,98.40
2022-10-13T15:59:25.560Z,98.40
2022-10-13T16:01:52.589Z,98.60
2022-10-13T16:04:19.291Z,99.30
2022-10-13T16:06:46.300Z,99.70
2022-10-13T16:09:13.193Z,99.50
2022-10-13T16:11:39.975Z,99.90
2022-10-13T16:14:06.658Z,99.90
2022-10-13T16:16:33.436Z,99.90
2022-10-13T16:19:02.784Z,99.90
2022-10-13T16:21:29.588Z,99.90
2022-10-13T16:23:56.755Z,99.90
2022-10-13T16:26:23.911Z,99.90
2022-10-13T16:28:56.016Z,99.90
2022-10-13T16:31:22.875Z,99.90
2022-10-13T16:33:49.712Z,99.90
2022-10-13T16:36:26.593Z,99.90
2022-10-13T16:38:54.774Z,99.90
2022-10-13T16:41:21.697Z,99.90
2022-10-13T16:43:48.475Z,99.90
2022-10-13T16:46:17.728Z,99.90
2022-10-13T16:48:44.620Z,99.90
2022-10-13T16:51:19.976Z,99.90
2022-10-13T16:53:50.762Z,99.90
2022-10-13T16:56:22.063Z,99.90
2022-10-13T16:58:49.968Z,99.90
2022-10-13T17:01:16.863Z,99.90
2022-10-13T17:03:44.311Z,99.90
2022-10-13T17:06:11.602Z,99.90
2022-10-13T17:08:38.357Z,99.90
2022-10-13T17:11:05.433Z,99.90
2022-10-13T17:13:32.416Z,99.90
2022-10-13T17:15:59.285Z,99.90
2022-10-13T17:18:26.398Z,99.90
2022-10-13T17:21:01.160Z,99.90
2022-10-13T17:23:28.380Z,99.90
2022-10-13T17:25:55.379Z,99.90
2022-10-13T17:28:22.428Z,99.90
2022-10-13T17:30:59.458Z,99.90
2022-10-13T17:33:29.738Z,99.90
2022-10-13T17:36:04.873Z,99.90
2022-10-13T17:38:31.756Z,99.90
2022-10-13T17:41:02.732Z,99.90
2022-10-13T17:43:29.750Z,99.90
2022-10-13T17:46:12.171Z,99.90
2022-10-13T17:48:43.850Z,99.90
2022-10-13T17:51:12.343Z,99.90
2022-10-13T17:53:39.609Z,99.90
2022-10-13T17:56:08.232Z,99.90
2022-10-13T17:58:38.687Z,99.90
2022-10-13T18:01:13.374Z,99.90
2022-10-13T18:03:44.896Z,99.90
2022-10-13T18:06:12.099Z,99.90
2022-10-13T18:08:39.128Z,99.90
2022-10-13T18:11:10.654Z,99.90
2022-10-13T18:13:37.608Z,99.90
2022-10-13T18:16:09.113Z,99.90
2022-10-13T18:18:35.982Z,99.90
2022-10-13T18:21:07.477Z,99.90
2022-10-13T18:23:35.251Z,99.90
2022-10-13T18:26:06.063Z,99.90
2022-10-13T18:28:33.647Z,99.90
2022-10-13T18:31:08.061Z,99.90
2022-10-13T18:33:35.144Z,99.90
2022-10-13T18:36:02.363Z,99.90
2022-10-13T18:38:29.169Z,99.90
2022-10-13T18:40:59.147Z,99.90
2022-10-13T18:43:25.934Z,99.90
2022-10-13T18:45:52.638Z,99.90
2022-10-13T18:48:20.094Z,99.90
2022-10-13T18:50:46.745Z,99.90
2022-10-13T18:53:13.537Z,99.90
2022-10-13T18:55:42.863Z,99.90
2022-10-13T18:58:09.945Z,99.90
2022-10-13T19:00:36.792Z,99.90
2022-10-13T19:03:03.773Z,99.90
2022-10-13T19:05:30.451Z,99.90
2022-10-13T19:07:57.507Z,99.90
2022-10-13T19:10:24.493Z,99.90
2022-10-13T19:12:51.217Z,99.90
2022-10-13T19:15:18.040Z,99.90
2022-10-13T19:17:45.373Z,99.90
2022-10-13T19:20:12.235Z,99.90
2022-10-13T19:22:39.036Z,99.90
2022-10-13T19:25:06.566Z,99.90
2022-10-13T19:27:33.497Z,99.90
2022-10-13T19:30:00.250Z,99.90
2022-10-13T19:32:26.924Z,99.90
2022-10-13T19:34:56.837Z,99.90
2022-10-13T19:37:23.612Z,99.90
2022-10-13T19:39:50.698Z,99.90
2022-10-13T19:42:17.597Z,99.90
2022-10-13T19:44:44.273Z,99.90
2022-10-13T19:47:11.449Z,99.90
2022-10-13T19:49:38.159Z,99.90
2022-10-13T19:52:05.075Z,99.90
2022-10-13T19:54:34.843Z,99.90
2022-10-13T19:57:01.829Z,99.90
2022-10-13T19:59:28.622Z,99.90
2022-10-13T20:01:56.593Z,99.90
2022-10-13T20:04:23.435Z,99.90
2022-10-13T20:06:50.593Z,99.90
2022-10-13T20:09:18.295Z,99.90
2022-10-13T20:11:46.473Z,99.90
2022-10-13T20:14:14.237Z,99.90
2022-10-13T20:16:41.309Z,99.90
2022-10-13T20:19:08.182Z,99.90
2022-10-13T20:21:34.917Z,99.90
2022-10-13T20:24:01.603Z,99.90
2022-10-13T20:26:28.507Z,99.90
2022-10-13T20:28:55.342Z,99.90
2022-10-13T20:31:22.490Z,99.90
2022-10-13T20:33:52.733Z,99.90
2022-10-13T20:36:19.650Z,99.90
2022-10-13T20:38:47.470Z,99.90
2022-10-13T20:41:28.702Z,99.90
2022-10-13T20:43:56.567Z,99.90
2022-10-13T20:46:23.926Z,99.90
2022-10-13T20:49:09.867Z,99.90
2022-10-13T20:51:37.494Z,99.90
2022-10-13T20:54:04.597Z,99.90
2022-10-13T20:56:31.321Z,99.90
2022-10-13T20:59:02.976Z,99.90
2022-10-13T21:01:30.045Z,99.90
2022-10-13T21:03:56.873Z,99.90
2022-10-13T21:06:24.287Z,99.90
2022-10-13T21:08:51.475Z,99.90
2022-10-13T21:11:20.082Z,99.90
2022-10-13T21:13:47.031Z,99.90
2022-10-13T21:16:15.635Z,99.90
2022-10-13T21:18:49.324Z,99.90
2022-10-13T21:21:30.562Z,99.90
2022-10-13T21:23:58.802Z,99.90
2022-10-13T21:26:26.923Z,99.90
2022-10-13T21:28:53.958Z,99.90
2022-10-13T21:31:21.756Z,99.90
2022-10-13T21:33:48.687Z,99.90
2022-10-13T21:36:20.545Z,99.90
2022-10-13T21:38:49.772Z,99.90
2022-10-13T21:41:16.646Z,99.90
2022-10-13T21:43:43.359Z,99.90
2022-10-13T21:46:18.447Z,99.90
2022-10-13T21:48:46.004Z,99.90
2022-10-13T21:51:20.125Z,99.90
2022-10-13T21:53:50.932Z,99.90
2022-10-13T21:56:18.028Z,99.90
2022-10-13T21:58:44.903Z,99.90
2022-10-13T22:01:11.792Z,99.90
2022-10-13T22:03:38.792Z,99.90
2022-10-13T22:06:06.688Z,99.90
2022-10-13T22:08:38.495Z,99.90
2022-10-13T22:11:06.302Z,99.90
2022-10-13T22:13:33.036Z,99.90
2022-10-13T22:16:07.405Z,99.90
2022-10-13T22:18:34.152Z,99.90
2022-10-13T22:21:04.943Z,99.90
2022-10-13T22:23:31.754Z,99.90
2022-10-13T22:25:58.861Z,99.90
2022-10-13T22:28:25.971Z,99.90
2022-10-13T22:30:52.822Z,99.90
2022-10-13T22:33:19.699Z,99.90
2022-10-13T22:35:46.973Z,99.90
2022-10-13T22:38:14.283Z,99.90
2022-10-13T22:40:41.614Z,99.90
2022-10-13T22:43:08.394Z,99.90
2022-10-13T22:45:35.093Z,99.90
2022-10-13T22:48:02.232Z,99.90
2022-10-13T22:50:29.232Z,99.90
2022-10-13T22:52:55.920Z,99.90
2022-10-13T22:55:22.734Z,99.90
2022-10-13T22:57:49.597Z,99.90
2022-10-13T23:00:16.604Z,99.90
2022-10-13T23:02:43.342Z,99.90
2022-10-13T23:05:10.042Z,99.90
2022-10-13T23:07:36.743Z,99.90
2022-10-13T23:10:03.833Z,99.90
2022-10-13T23:12:30.615Z,99.90
2022-10-13T23:14:57.313Z,99.90
2022-10-13T23:17:24.370Z,99.90
2022-10-13T23:19:51.165Z,99.90
2022-10-13T23:22:17.886Z,99.90
2022-10-13T23:24:44.539Z,99.90
2022-10-13T23:27:11.265Z,99.90
2022-10-13T23:29:40.291Z,99.90
2022-10-13T23:32:09.757Z,99.90
2022-10-13T23:34:36.804Z,99.90
2022-10-13T23:37:03.627Z,99.90
2022-10-13T23:39:30.330Z,99.90
2022-10-13T23:41:57.061Z,99.90
2022-10-13T23:44:23.767Z,99.90
2022-10-13T23:46:50.481Z,99.90
2022-10-13T23:49:17.138Z,99.90
2022-10-13T23:51:44.111Z,99.90
2022-10-13T23:54:11.164Z,99.90
2022-10-13T23:56:38.564Z,99.90
2022-10-13T23:59:05.805Z,99.90
